Time;durP1;ratioP1;P1;durP2;ratioP2;P2;SDS_P1;SDS_P2;PMS_P1;PMS_P2;Temp;Humidity;BMP_temperature;BMP_pressure;BME280_temperature;BME280_humidity;BME280_pressure;Samples;Min_cycle;Max_cycle;Signal;HPM_P1;HPM_P2
2023/09/01 00:00:14;;;;;;;2.03;1.13;;;;;;;20.05;100.00;96188.16;5039466;28;20210;-67
2023/09/01 00:02:40;;;;;;;1.83;1.15;;;;;;;19.91;100.00;96184.16;5038456;28;20211;-66
2023/09/01 00:05:08;;;;;;;2.22;1.50;;;;;;;19.98;100.00;96188.28;5039128;28;20197;-67
2023/09/01 00:07:35;;;;;;;2.83;1.63;;;;;;;19.80;100.00;96177.72;5039318;28;20229;-65
2023/09/01 00:10:03;;;;;;;2.85;1.63;;;;;;;19.78;100.00;96174.47;5038437;28;20225;-67
2023/09/01 00:12:31;;;;;;;3.28;2.03;;;;;;;19.97;100.00;96170.66;5038938;28;20194;-66
2023/09/01 00:14:58;;;;;;;2.65;1.40;;;;;;;19.76;100.00;96178.44;5038950;28;20197;-67
2023/09/01 00:17:24;;;;;;;6.38;1.88;;;;;;;19.67;100.00;96164.59;5038440;28;20233;-67
2023/09/01 00:19:51;;;;;;;6.07;2.15;;;;;;;19.64;100.00;96164.28;5038751;28;20197;-67
2023/09/01 00:22:17;;;;;;;2.53;1.52;;;;;;;19.61;100.00;96159.38;5038348;28;20209;-66
2023/09/01 00:24:44;;;;;;;3.00;1.98;;;;;;;19.55;100.00;96154.16;5039456;28;20216;-66
2023/09/01 00:27:11;;;;;;;4.40;2.45;;;;;;;19.50;100.00;96154.03;5037657;28;20891;-66
2023/09/01 00:29:39;;;;;;;3.03;2.00;;;;;;;19.62;100.00;96159.16;5038331;28;21096;-66
2023/09/01 00:32:06;;;;;;;3.55;2.08;;;;;;;19.64;100.00;96148.25;5038567;28;20201;-65
2023/09/01 00:34:33;;;;;;;5.00;2.25;;;;;;;19.46;100.00;96153.69;5038411;28;20205;-66
2023/09/01 00:36:59;;;;;;;3.85;2.10;;;;;;;19.52;100.00;96149.28;5037297;28;20217;-66
2023/09/01 00:39:26;;;;;;;3.22;1.55;;;;;;;19.33;100.00;96139.78;5038839;28;20201;-66
2023/09/01 00:41:52;;;;;;;2.70;1.60;;;;;;;19.39;100.00;96146.88;5038074;28;21279;-67
2023/09/01 00:44:19;;;;;;;2.33;1.73;;;;;;;19.33;100.00;96137.91;5038274;28;20216;-66
2023/09/01 00:46:47;;;;;;;3.22;2.03;;;;;;;19.50;100.00;96136.16;5037892;28;20244;-66
2023/09/01 00:49:18;;;;;;;4.90;1.83;;;;;;;19.67;100.00;96142.41;5038040;28;20228;-67
2023/09/01 00:51:46;;;;;;;2.30;2.03;;;;;;;19.47;100.00;96143.84;5038012;28;20267;-66
2023/09/01 00:54:14;;;;;;;4.47;2.17;;;;;;;19.60;100.00;96147.88;5038668;28;20259;-67
2023/09/01 00:56:41;;;;;;;4.10;1.67;;;;;;;19.55;100.00;96148.81;5037216;28;20229;-66
2023/09/01 00:59:07;;;;;;;2.10;1.40;;;;;;;19.60;100.00;96131.84;5038366;28;20194;-66
2023/09/01 01:01:35;;;;;;;2.33;1.48;;;;;;;19.48;100.00;96134.78;5037768;28;20734;-67
2023/09/01 01:04:07;;;;;;;6.65;1.80;;;;;;;19.44;100.00;96120.25;5037855;28;20209;-66
2023/09/01 01:06:42;;;;;;;2.25;1.20;;;;;;;19.60;100.00;96131.00;5036894;28;20311;-66
2023/09/01 01:09:14;;;;;;;3.83;1.88;;;;;;;19.78;100.00;96112.97;5037779;28;20407;-66
2023/09/01 01:11:45;;;;;;;2.10;1.17;;;;;;;19.75;100.00;96120.66;5037609;28;20716;-66
2023/09/01 01:14:16;;;;;;;3.95;1.50;;;;;;;19.85;100.00;96112.84;5036744;28;20205;-67
2023/09/01 01:16:43;;;;;;;6.28;1.55;;;;;;;19.44;100.00;96114.91;5037112;28;20229;-67
2023/09/01 01:19:23;;;;;;;2.22;1.70;;;;;;;19.90;100.00;96108.41;5037207;28;20205;-67
2023/09/01 01:21:53;;;;;;;4.53;1.67;;;;;;;19.91;100.00;96109.25;5037880;28;20212;-67
2023/09/01 01:24:22;;;;;;;3.25;1.70;;;;;;;19.89;100.00;96106.75;5037861;28;20203;-67
2023/09/01 01:26:49;;;;;;;2.40;1.42;;;;;;;19.43;100.00;96095.38;5036962;28;20237;-67
2023/09/01 01:29:16;;;;;;;3.35;1.48;;;;;;;19.46;100.00;96105.59;5038299;28;20233;-67
2023/09/01 01:31:43;;;;;;;2.55;1.48;;;;;;;19.82;100.00;96102.63;5037924;28;20201;-67
2023/09/01 01:34:18;;;;;;;3.60;1.20;;;;;;;20.10;100.00;96108.84;5036625;28;20717;-67
2023/09/01 01:36:50;;;;;;;4.90;1.67;;;;;;;20.18;100.00;96105.78;5037082;28;20220;-67
2023/09/01 01:39:24;;;;;;;3.13;1.85;;;;;;;20.16;100.00;96109.75;5037802;28;20232;-67
2023/09/01 01:41:55;;;;;;;2.03;1.33;;;;;;;20.15;100.00;96103.59;5037257;28;20659;-67
2023/09/01 01:44:26;;;;;;;3.10;1.88;;;;;;;20.06;100.00;96105.03;5037137;28;20201;-66
2023/09/01 01:46:53;;;;;;;4.00;1.58;;;;;;;19.71;100.00;96098.91;5036586;28;20221;-66
2023/09/01 01:49:20;;;;;;;2.50;1.67;;;;;;;19.66;100.00;96104.16;5036261;28;20231;-66
2023/09/01 01:51:47;;;;;;;5.88;1.80;;;;;;;19.67;100.00;96103.09;5037287;28;20239;-66
2023/09/01 01:54:13;;;;;;;3.92;2.03;;;;;;;19.44;100.00;96105.03;5037004;28;20207;-66
2023/09/01 01:56:40;;;;;;;2.20;1.40;;;;;;;19.54;100.00;96104.41;5036386;28;20228;-66
2023/09/01 01:59:08;;;;;;;5.60;2.22;;;;;;;19.92;100.00;96105.50;5036643;28;20584;-66
2023/09/01 02:01:34;;;;;;;2.58;1.48;;;;;;;19.67;100.00;96105.78;5037021;28;20679;-66
2023/09/01 02:04:01;;;;;;;5.93;2.05;;;;;;;19.58;100.00;96098.38;5036301;28;20197;-66
2023/09/01 02:06:27;;;;;;;1.83;1.30;;;;;;;19.56;100.00;96091.63;5036452;28;21258;-66
2023/09/01 02:08:54;;;;;;;4.03;1.55;;;;;;;19.48;100.00;96098.16;5036575;28;20229;-65
2023/09/01 02:11:20;;;;;;;2.22;1.42;;;;;;;19.51;100.00;96096.88;5037358;28;20201;-66
2023/09/01 02:13:47;;;;;;;3.25;1.90;;;;;;;19.42;100.00;96099.09;5035829;28;20750;-66
2023/09/01 02:16:15;;;;;;;2.65;1.55;;;;;;;19.63;100.00;96093.13;5036241;28;20211;-66
2023/09/01 02:18:41;;;;;;;3.53;1.55;;;;;;;19.27;100.00;96092.59;5035097;28;20207;-67
2023/09/01 02:21:08;;;;;;;2.72;1.48;;;;;;;19.44;100.00;96089.00;5034096;28;20290;-66
2023/09/01 02:23:35;;;;;;;2.65;1.70;;;;;;;19.42;100.00;96090.25;5036618;28;20216;-67
2023/09/01 02:26:04;;;;;;;7.55;1.92;;;;;;;19.41;100.00;96093.97;5036541;28;20208;-66
2023/09/01 02:28:31;;;;;;;4.10;1.77;;;;;;;19.68;100.00;96090.56;5036255;28;20274;-66
2023/09/01 02:30:57;;;;;;;2.30;1.30;;;;;;;19.91;100.00;96096.69;5036741;28;20216;-66
2023/09/01 02:33:25;;;;;;;2.53;1.67;;;;;;;19.97;100.00;96094.91;5036864;28;20209;-66
2023/09/01 02:36:12;;;;;;;2.33;1.65;;;;;;;19.50;100.00;96098.75;5035443;28;20308;-66
2023/09/01 02:38:38;;;;;;;3.95;2.25;;;;;;;19.19;100.00;96099.09;5035901;28;20216;-67
2023/09/01 02:41:05;;;;;;;2.38;1.63;;;;;;;19.29;100.00;96101.22;5037099;28;20584;-67
2023/09/01 02:43:31;;;;;;;3.85;1.83;;;;;;;19.34;100.00;96104.78;5036106;28;20204;-67
2023/09/01 02:45:58;;;;;;;3.47;1.60;;;;;;;19.44;100.00;96098.88;5035448;28;20776;-67
2023/09/01 02:48:26;;;;;;;2.92;1.27;;;;;;;19.78;100.00;96093.44;5036144;28;20205;-67
2023/09/01 02:50:52;;;;;;;6.72;1.90;;;;;;;19.60;100.00;96099.75;5035645;28;20224;-67
2023/09/01 02:53:19;;;;;;;1.33;1.13;;;;;;;19.45;100.00;96090.63;5036012;28;20205;-67
2023/09/01 02:55:45;;;;;;;2.60;1.67;;;;;;;19.69;100.00;96102.88;5035775;28;20251;-67
2023/09/01 02:58:12;;;;;;;3.20;1.85;;;;;;;19.52;100.00;96101.97;5035639;28;20242;-67
2023/09/01 03:00:38;;;;;;;2.67;1.58;;;;;;;19.01;100.00;96103.72;5035953;28;20220;-67
2023/09/01 03:03:06;;;;;;;3.33;1.88;;;;;;;19.18;100.00;96096.66;5036156;28;20916;-67
2023/09/01 03:05:34;;;;;;;2.58;1.42;;;;;;;19.56;100.00;96102.34;5035662;28;20589;-67
2023/09/01 03:08:00;;;;;;;3.10;1.58;;;;;;;19.17;100.00;96105.72;5034818;28;20232;-67
2023/09/01 03:10:27;;;;;;;3.15;1.80;;;;;;;19.11;100.00;96104.81;5036106;28;20244;-67
2023/09/01 03:12:53;;;;;;;4.72;1.40;;;;;;;19.32;100.00;96101.56;5035806;28;20212;-67
2023/09/01 03:15:21;;;;;;;2.63;1.38;;;;;;;19.49;100.00;96098.97;5034814;28;20224;-67
2023/09/01 03:17:47;;;;;;;2.17;1.08;;;;;;;19.35;100.00;96100.28;5035034;28;20263;-66
2023/09/01 03:20:14;;;;;;;2.22;1.33;;;;;;;19.51;100.00;96102.22;5035766;28;20207;-67
2023/09/01 03:22:42;;;;;;;2.22;1.20;;;;;;;19.92;100.00;96103.66;5036101;28;20209;-65
2023/09/01 03:25:10;;;;;;;1.25;0.82;;;;;;;19.60;100.00;96107.78;5036005;28;20198;-67
2023/09/01 03:27:36;;;;;;;3.42;1.42;;;;;;;19.82;100.00;96103.44;5035352;28;20224;-66
2023/09/01 03:30:04;;;;;;;2.53;1.30;;;;;;;19.81;100.00;96095.66;5035938;28;20727;-66
2023/09/01 03:32:31;;;;;;;3.22;1.50;;;;;;;19.95;100.00;96113.88;5039550;28;21159;-67
2023/09/01 03:34:57;;;;;;;1.65;1.15;;;;;;;19.90;100.00;96103.06;5039929;28;20698;-66
2023/09/01 03:37:24;;;;;;;1.42;0.82;;;;;;;20.10;100.00;96105.34;5039039;28;20748;-66
2023/09/01 03:39:52;;;;;;;1.77;0.98;;;;;;;19.98;100.00;96102.69;5040051;28;20193;-67
2023/09/01 03:42:19;;;;;;;3.25;1.00;;;;;;;19.72;100.00;96107.75;5040456;28;20205;-66
2023/09/01 03:44:45;;;;;;;2.15;1.00;;;;;;;19.84;100.00;96105.88;5038765;28;20208;-66
2023/09/01 03:47:13;;;;;;;1.30;1.00;;;;;;;19.84;100.00;96109.34;5038713;28;20233;-65
2023/09/01 03:49:40;;;;;;;2.80;0.63;;;;;;;19.67;100.00;96105.78;5039829;28;20224;-66
2023/09/01 03:52:07;;;;;;;2.80;1.20;;;;;;;19.96;100.00;96104.81;5040479;28;20205;-67
2023/09/01 03:54:33;;;;;;;1.55;0.80;;;;;;;19.77;100.00;96106.00;5039105;28;20899;-66
2023/09/01 03:57:01;;;;;;;1.63;1.17;;;;;;;20.15;100.00;96108.09;5038253;28;20243;-65
2023/09/01 03:59:28;;;;;;;2.55;1.10;;;;;;;20.05;100.00;96107.91;5040092;28;20663;-66
2023/09/01 04:01:54;;;;;;;2.13;1.45;;;;;;;19.57;100.00;96111.97;5038831;28;20678;-67
2023/09/01 04:04:21;;;;;;;2.08;1.42;;;;;;;19.77;100.00;96113.22;5039404;28;20201;-65
2023/09/01 04:06:47;;;;;;;2.67;1.17;;;;;;;19.42;100.00;96117.00;5039049;28;20233;-66
2023/09/01 04:09:14;;;;;;;1.88;0.98;;;;;;;19.70;100.00;96115.19;5039062;28;20617;-67
2023/09/01 04:11:40;;;;;;;1.50;1.02;;;;;;;19.67;100.00;96118.34;5038978;28;20256;-65
2023/09/01 04:14:10;;;;;;;0.85;0.80;;;;;;;19.99;100.00;96114.22;5038837;28;20205;-67
2023/09/01 04:16:37;;;;;;;1.63;1.10;;;;;;;19.88;100.00;96120.38;5039145;28;20232;-66
2023/09/01 04:19:03;;;;;;;1.00;0.68;;;;;;;19.88;100.00;96115.88;5038457;28;21110;-65
2023/09/01 04:21:30;;;;;;;3.08;0.80;;;;;;;19.93;100.00;96124.00;5039959;28;20201;-66
2023/09/01 04:23:56;;;;;;;2.50;1.13;;;;;;;19.97;100.00;96127.00;5038755;28;20667;-66
2023/09/01 04:26:23;;;;;;;1.60;0.70;;;;;;;19.69;100.00;96129.59;5038928;28;20229;-66
2023/09/01 04:28:49;;;;;;;2.10;1.23;;;;;;;20.12;100.00;96130.00;5038965;28;20212;-67
2023/09/01 04:31:26;;;;;;;2.40;0.88;;;;;;;20.52;100.00;96128.88;5039470;28;20228;-67
2023/09/01 04:33:52;;;;;;;2.05;1.02;;;;;;;20.16;100.00;96125.78;5038267;28;20727;-65
2023/09/01 04:36:19;;;;;;;3.42;0.90;;;;;;;20.10;100.00;96135.59;5038898;28;20735;-67
2023/09/01 04:38:45;;;;;;;3.58;1.00;;;;;;;19.76;100.00;96130.31;5038095;28;20208;-67
2023/09/01 04:41:12;;;;;;;2.33;1.10;;;;;;;20.17;100.00;96136.25;5038816;28;20209;-67
2023/09/01 04:43:38;;;;;;;1.10;0.70;;;;;;;19.92;100.00;96133.09;5036774;28;20212;-67
2023/09/01 04:46:05;;;;;;;0.70;0.70;;;;;;;20.01;100.00;96125.50;5038586;28;20258;-67
2023/09/01 04:48:34;;;;;;;1.45;0.80;;;;;;;20.06;100.00;96134.44;5038015;28;20212;-67
2023/09/01 04:51:02;;;;;;;1.02;0.85;;;;;;;19.76;100.00;96131.09;5038154;28;20228;-66
2023/09/01 04:53:29;;;;;;;3.22;0.75;;;;;;;19.84;100.00;96133.41;5038461;28;20288;-67
2023/09/01 04:55:55;;;;;;;1.45;0.70;;;;;;;19.62;100.00;96139.63;5038432;28;20201;-66
2023/09/01 04:58:22;;;;;;;1.08;0.70;;;;;;;19.69;100.00;96135.78;5037983;28;20278;-66
2023/09/01 05:00:50;;;;;;;0.68;0.60;;;;;;;19.75;100.00;96136.69;5038176;28;20198;-66
2023/09/01 05:03:17;;;;;;;1.80;1.02;;;;;;;19.98;100.00;96139.34;5038112;28;20205;-66
2023/09/01 05:05:45;;;;;;;1.33;0.80;;;;;;;20.49;100.00;96138.22;5037357;28;20212;-66
2023/09/01 05:08:11;;;;;;;1.58;0.80;;;;;;;19.80;100.00;96142.16;5037758;28;20225;-66
2023/09/01 05:10:38;;;;;;;1.10;1.00;;;;;;;19.88;100.00;96139.94;5037649;28;20236;-66
2023/09/01 05:13:04;;;;;;;1.00;0.80;;;;;;;19.97;100.00;96141.22;5038095;28;20562;-66
2023/09/01 05:15:31;;;;;;;0.65;0.65;;;;;;;20.05;100.00;96143.53;5037652;28;20211;-66
2023/09/01 05:17:57;;;;;;;1.67;0.80;;;;;;;19.85;100.00;96148.41;5036916;28;20225;-66
2023/09/01 05:20:24;;;;;;;2.33;0.60;;;;;;;20.14;100.00;96149.28;5038119;28;20575;-66
2023/09/01 05:22:52;;;;;;;0.45;0.45;;;;;;;20.18;100.00;96151.25;5038144;28;20201;-67
2023/09/01 05:25:19;;;;;;;2.25;1.00;;;;;;;20.04;100.00;96149.91;5037085;28;20296;-66
2023/09/01 05:27:45;;;;;;;1.42;0.70;;;;;;;19.94;100.00;96147.03;5037555;28;20221;-66
2023/09/01 05:30:13;;;;;;;3.53;0.63;;;;;;;20.17;100.00;96149.63;5038595;28;20225;-66
2023/09/01 05:32:40;;;;;;;1.30;0.95;;;;;;;20.08;100.00;96144.91;5036652;28;20263;-66
2023/09/01 05:35:07;;;;;;;0.82;0.57;;;;;;;20.21;100.00;96151.59;5036288;28;20201;-66
2023/09/01 05:37:34;;;;;;;1.45;0.68;;;;;;;19.59;100.00;96150.81;5037534;28;20232;-66
2023/09/01 05:40:03;;;;;;;4.72;1.27;;;;;;;20.51;100.00;96156.72;5037688;28;20200;-66
2023/09/01 05:42:29;;;;;;;4.80;0.70;;;;;;;20.14;100.00;96150.13;5037494;28;20216;-66
2023/09/01 05:44:56;;;;;;;2.83;0.88;;;;;;;20.15;100.00;96150.91;5037362;28;20209;-66
2023/09/01 05:47:22;;;;;;;1.92;0.90;;;;;;;20.43;100.00;96157.91;5037291;28;20225;-66
2023/09/01 05:49:49;;;;;;;0.95;0.88;;;;;;;20.12;100.00;96149.53;5036618;28;20205;-66
2023/09/01 05:52:15;;;;;;;1.27;0.60;;;;;;;19.94;100.00;96148.91;5035881;28;20682;-66
2023/09/01 05:54:42;;;;;;;1.35;1.10;;;;;;;19.95;100.00;96154.00;5036531;28;20565;-67
2023/09/01 05:57:09;;;;;;;1.92;1.13;;;;;;;20.43;100.00;96165.13;5036041;28;20232;-66
2023/09/01 05:59:36;;;;;;;3.72;0.52;;;;;;;19.96;100.00;96168.19;5036725;28;20209;-66
2023/09/01 06:02:03;;;;;;;1.50;0.77;;;;;;;19.97;100.00;96172.50;5036660;28;20987;-66
2023/09/01 06:04:29;;;;;;;2.85;0.70;;;;;;;20.18;100.00;96169.19;5035849;28;20259;-66
2023/09/01 06:06:55;;;;;;;0.75;0.70;;;;;;;20.17;100.00;96171.03;5035084;28;20229;-66
2023/09/01 06:09:22;;;;;;;2.13;1.00;;;;;;;20.57;100.00;96169.97;5036547;28;20208;-66
2023/09/01 06:11:48;;;;;;;2.33;0.85;;;;;;;20.50;100.00;96180.00;5036501;28;20221;-66
2023/09/01 06:14:16;;;;;;;1.88;1.05;;;;;;;21.19;100.00;96183.13;5035566;28;20193;-66
2023/09/01 06:16:44;;;;;;;1.40;1.00;;;;;;;20.62;100.00;96193.31;5034336;28;20275;-66
2023/09/01 06:19:11;;;;;;;2.58;0.70;;;;;;;20.42;100.00;96196.44;5036315;28;20206;-66
2023/09/01 06:21:37;;;;;;;2.17;1.00;;;;;;;20.45;100.00;96195.94;5035845;28;20206;-66
2023/09/01 06:24:04;;;;;;;1.10;0.60;;;;;;;20.75;100.00;96191.22;5036655;28;21180;-66
2023/09/01 06:26:31;;;;;;;2.35;1.20;;;;;;;20.60;100.00;96198.13;5036352;28;20291;-66
2023/09/01 06:28:57;;;;;;;1.00;0.80;;;;;;;20.79;100.00;96197.72;5036185;28;20201;-66
2023/09/01 06:31:25;;;;;;;2.15;0.50;;;;;;;21.13;100.00;96200.19;5036033;28;20234;-66
2023/09/01 06:33:52;;;;;;;2.45;0.60;;;;;;;20.83;100.00;96200.72;5036570;28;20205;-66
2023/09/01 06:36:19;;;;;;;0.85;0.63;;;;;;;20.94;100.00;96200.66;5036333;28;20745;-66
2023/09/01 06:38:45;;;;;;;2.50;0.73;;;;;;;21.17;100.00;96195.16;5035497;28;20232;-66
2023/09/01 06:41:13;;;;;;;1.08;0.80;;;;;;;21.73;100.00;96193.13;5035918;28;20210;-67
2023/09/01 06:43:40;;;;;;;1.65;0.70;;;;;;;21.19;100.00;96195.72;5037917;28;20213;-66
2023/09/01 06:46:06;;;;;;;1.17;0.82;;;;;;;21.00;100.00;96202.34;5035776;28;20301;-66
2023/09/01 06:48:35;;;;;;;0.50;0.50;;;;;;;21.45;100.00;96198.56;5033463;28;20217;-66
2023/09/01 06:51:02;;;;;;;0.95;0.70;;;;;;;21.34;100.00;96202.13;5036397;28;20303;-66
2023/09/01 06:53:28;;;;;;;1.65;1.00;;;;;;;20.91;100.00;96207.31;5036859;28;20671;-66
2023/09/01 06:55:55;;;;;;;0.73;0.60;;;;;;;20.58;100.00;96203.72;5035965;28;20205;-66
2023/09/01 06:58:21;;;;;;;1.05;0.73;;;;;;;20.68;100.00;96211.13;5035439;28;20209;-66
2023/09/01 07:00:51;;;;;;;1.85;0.85;;;;;;;21.06;100.00;96212.91;5036714;28;20209;-66
2023/09/01 07:03:17;;;;;;;1.80;0.80;;;;;;;21.28;100.00;96213.81;5036420;28;20205;-66
2023/09/01 07:05:53;;;;;;;0.82;0.50;;;;;;;21.64;100.00;96221.44;5035506;28;20204;-67
2023/09/01 07:08:20;;;;;;;1.10;0.70;;;;;;;20.93;100.00;96210.56;5035752;28;20286;-66
2023/09/01 07:10:46;;;;;;;1.60;1.15;;;;;;;21.02;100.00;96224.38;5036295;28;20228;-66
2023/09/01 07:13:13;;;;;;;1.85;1.00;;;;;;;20.76;100.00;96234.88;5035143;28;20213;-67
2023/09/01 07:15:39;;;;;;;0.88;0.70;;;;;;;20.81;100.00;96234.97;5036431;28;20205;-66
2023/09/01 07:18:06;;;;;;;1.10;0.75;;;;;;;20.73;100.00;96236.16;5034765;28;20221;-66
2023/09/01 07:20:32;;;;;;;0.80;0.60;;;;;;;20.81;100.00;96237.66;5035542;28;20209;-66
2023/09/01 07:23:00;;;;;;;0.93;0.60;;;;;;;21.06;100.00;96237.03;5034920;28;20340;-66
2023/09/01 07:25:26;;;;;;;1.85;0.50;;;;;;;20.83;100.00;96242.50;5036356;28;20212;-66
2023/09/01 07:27:53;;;;;;;0.82;0.60;;;;;;;21.01;100.00;96244.19;5035011;28;20224;-66
2023/09/01 07:30:19;;;;;;;1.17;0.65;;;;;;;20.70;100.00;96243.84;5035252;28;20224;-66
2023/09/01 07:32:46;;;;;;;0.93;0.65;;;;;;;20.98;100.00;96255.41;5035487;28;20205;-66
2023/09/01 07:35:13;;;;;;;0.60;0.60;;;;;;;20.45;100.00;96254.84;5035472;28;20213;-67
2023/09/01 07:37:39;;;;;;;1.77;0.80;;;;;;;20.73;100.00;96259.47;5035705;28;20240;-66
2023/09/01 07:40:08;;;;;;;10.55;0.77;;;;;;;20.61;100.00;96258.63;5035248;28;20205;-65
2023/09/01 07:42:35;;;;;;;3.53;0.77;;;;;;;20.40;100.00;96254.78;5036233;28;20198;-66
2023/09/01 07:45:02;;;;;;;1.85;0.70;;;;;;;20.67;100.00;96253.16;5034996;28;20213;-66
2023/09/01 07:47:29;;;;;;;0.55;0.52;;;;;;;20.14;100.00;96251.78;5034307;28;20274;-67
2023/09/01 07:49:55;;;;;;;0.82;0.55;;;;;;;19.97;100.00;96252.75;5034040;28;20365;-67
2023/09/01 07:52:22;;;;;;;1.33;1.05;;;;;;;20.65;100.00;96259.81;5035455;28;20232;-66
2023/09/01 07:54:48;;;;;;;1.23;0.95;;;;;;;20.82;100.00;96250.00;5034619;28;20330;-66
2023/09/01 07:57:16;;;;;;;0.85;0.68;;;;;;;21.26;100.00;96256.16;5033561;28;20878;-66
2023/09/01 07:59:43;;;;;;;0.95;0.73;;;;;;;21.03;100.00;96250.13;5034650;28;20209;-67
2023/09/01 08:02:09;;;;;;;2.05;0.82;;;;;;;21.34;100.00;96257.63;5036594;28;20211;-67
2023/09/01 08:04:36;;;;;;;1.42;0.65;;;;;;;21.71;100.00;96252.38;5034702;28;20369;-66
2023/09/01 08:07:03;;;;;;;1.67;0.88;;;;;;;21.78;100.00;96249.50;5034135;28;20331;-67
2023/09/01 08:09:30;;;;;;;0.93;0.82;;;;;;;21.78;100.00;96258.38;5034532;28;20205;-67
2023/09/01 08:11:56;;;;;;;1.75;0.80;;;;;;;21.94;100.00;96262.91;5034646;28;20729;-66
2023/09/01 08:14:24;;;;;;;3.25;0.93;;;;;;;22.02;100.00;96269.72;5034839;28;20211;-66
2023/09/01 08:16:51;;;;;;;1.42;0.90;;;;;;;21.96;100.00;96270.72;5034720;28;20725;-67
2023/09/01 08:19:18;;;;;;;0.77;0.70;;;;;;;22.19;100.00;96258.72;5038604;28;20212;-67
2023/09/01 08:21:44;;;;;;;1.40;0.70;;;;;;;22.14;100.00;96264.00;5037582;28;20548;-66
2023/09/01 08:24:11;;;;;;;2.35;1.25;;;;;;;22.28;100.00;96259.94;5038017;28;20205;-66
2023/09/01 08:26:37;;;;;;;1.20;1.10;;;;;;;22.66;100.00;96261.75;5037237;28;20331;-67
2023/09/01 08:29:04;;;;;;;1.42;0.80;;;;;;;22.64;100.00;96270.06;5037934;28;20202;-67
2023/09/01 08:31:33;;;;;;;2.67;0.95;;;;;;;22.84;100.00;96260.38;5037905;28;20240;-67
2023/09/01 08:33:59;;;;;;;3.03;0.90;;;;;;;22.62;100.00;96268.69;5038385;28;20198;-67
2023/09/01 08:36:26;;;;;;;1.92;0.93;;;;;;;22.92;100.00;96269.84;5037276;28;20232;-67
2023/09/01 08:38:53;;;;;;;0.90;0.47;;;;;;;22.75;100.00;96275.31;5037556;28;20451;-66
2023/09/01 08:41:20;;;;;;;1.25;0.75;;;;;;;23.39;100.00;96269.81;5038006;28;20205;-67
2023/09/01 08:43:49;;;;;;;0.98;0.75;;;;;;;23.65;100.00;96278.94;5038295;28;20217;-67
2023/09/01 08:46:21;;;;;;;1.45;0.70;;;;;;;23.67;100.00;96279.50;5036953;28;20201;-67
2023/09/01 08:48:49;;;;;;;3.85;1.00;;;;;;;23.29;100.00;96274.31;5036977;28;20209;-66
2023/09/01 08:51:16;;;;;;;2.60;0.70;;;;;;;23.43;100.00;96270.13;5037159;28;20235;-66
2023/09/01 08:53:43;;;;;;;1.77;0.90;;;;;;;23.34;100.00;96272.50;5037843;28;20216;-67
2023/09/01 08:56:10;;;;;;;1.95;0.93;;;;;;;23.30;100.00;96272.44;5036370;28;20205;-66
2023/09/01 08:58:37;;;;;;;2.85;0.80;;;;;;;23.50;100.00;96270.75;5037313;28;20757;-66
2023/09/01 09:01:04;;;;;;;2.00;0.60;;;;;;;23.59;100.00;96263.84;5037183;28;20209;-66
2023/09/01 09:03:32;;;;;;;0.70;0.50;;;;;;;23.83;100.00;96265.09;5037371;28;20232;-67
2023/09/01 09:06:02;;;;;;;1.08;0.75;;;;;;;23.76;100.00;96275.28;5036531;28;21255;-66
2023/09/01 09:08:30;;;;;;;1.42;0.65;;;;;;;23.64;100.00;96271.94;5037282;28;20209;-67
2023/09/01 09:10:56;;;;;;;0.75;0.57;;;;;;;23.34;100.00;96264.44;5037678;28;20209;-67
2023/09/01 09:13:24;;;;;;;0.90;0.65;;;;;;;23.74;100.00;96264.78;5037391;28;20216;-66
2023/09/01 09:16:10;;;;;;;3.20;0.60;;;;;;;23.82;100.00;96267.00;5036776;28;20682;-67
2023/09/01 09:18:37;;;;;;;6.43;0.80;;;;;;;23.28;100.00;96264.63;5037632;28;20551;-66
2023/09/01 09:21:22;;;;;;;2.22;0.80;;;;;;;23.50;100.00;96274.25;5036696;28;20205;-67
2023/09/01 09:23:48;;;;;;;0.73;0.43;;;;;;;22.69;100.00;96278.19;5037388;28;20289;-66
2023/09/01 09:26:15;;;;;;;0.63;0.60;;;;;;;22.59;100.00;96280.75;5036720;28;20216;-66
2023/09/01 09:28:43;;;;;;;0.93;0.65;;;;;;;22.98;100.00;96268.84;5036532;28;20201;-66
2023/09/01 09:31:09;;;;;;;0.50;0.50;;;;;;;22.89;100.00;96268.47;5036590;28;20205;-66
2023/09/01 09:33:38;;;;;;;0.73;0.50;;;;;;;23.31;100.00;96267.59;5036991;28;20697;-66
2023/09/01 09:36:06;;;;;;;0.70;0.40;;;;;;;23.47;100.00;96274.75;5036099;28;20213;-66
2023/09/01 09:38:40;;;;;;;0.63;0.40;;;;;;;23.90;100.00;96269.19;5036423;28;20666;-67
2023/09/01 09:41:07;;;;;;;1.90;0.85;;;;;;;23.19;100.00;96268.81;5036071;28;20561;-68
2023/09/01 09:43:43;;;;;;;1.42;0.75;;;;;;;24.16;100.00;96270.97;5036667;28;20205;-67
2023/09/01 09:46:10;;;;;;;2.33;0.60;;;;;;;23.53;100.00;96267.53;5036604;28;20209;-67
2023/09/01 09:48:38;;;;;;;7.38;0.60;;;;;;;23.59;100.00;96269.22;5036144;28;20208;-67
2023/09/01 09:51:07;;;;;;;1.80;0.90;;;;;;;23.97;100.00;96261.72;5036193;28;20216;-67
2023/09/01 09:53:35;;;;;;;1.92;0.93;;;;;;;23.94;100.00;96263.06;5035971;28;20236;-67
2023/09/01 09:56:15;;;;;;;0.73;0.57;;;;;;;24.61;100.00;96258.59;5036227;28;20476;-67
2023/09/01 09:58:45;;;;;;;0.90;0.55;;;;;;;24.37;100.00;96256.59;5035969;28;20215;-67
2023/09/01 10:01:17;;;;;;;0.75;0.70;;;;;;;24.76;95.83;96256.78;5036282;28;20664;-67
2023/09/01 10:03:44;;;;;;;0.40;0.40;;;;;;;24.75;97.79;96260.53;5036391;28;20272;-67
2023/09/01 10:06:13;;;;;;;1.00;0.55;;;;;;;24.70;97.72;96257.03;5035798;28;20205;-67
2023/09/01 10:08:40;;;;;;;0.82;0.60;;;;;;;24.12;95.61;96262.63;5035526;28;20212;-67
2023/09/01 10:11:09;;;;;;;1.10;0.68;;;;;;;24.65;100.00;96265.09;5035950;28;20201;-66
2023/09/01 10:13:37;;;;;;;0.50;0.50;;;;;;;24.90;93.85;96260.59;5036180;28;20233;-67
2023/09/01 10:16:05;;;;;;;0.98;0.45;;;;;;;25.08;94.26;96259.34;5036182;28;20663;-67
2023/09/01 10:18:34;;;;;;;0.65;0.52;;;;;;;25.29;90.75;96251.84;5036044;28;20205;-67
2023/09/01 10:21:01;;;;;;;0.60;0.45;;;;;;;24.70;89.47;96255.13;5036330;28;20208;-67
2023/09/01 10:23:30;;;;;;;1.00;0.50;;;;;;;25.03;88.61;96257.41;5035260;28;20698;-67
2023/09/01 10:26:14;;;;;;;0.40;0.40;;;;;;;25.85;88.75;96245.38;5035246;28;20876;-67
2023/09/01 10:28:54;;;;;;;0.63;0.40;;;;;;;25.47;89.83;96261.28;5036497;28;20212;-67
2023/09/01 10:31:21;;;;;;;1.98;0.60;;;;;;;25.74;88.99;96246.47;5035802;28;20573;-67
2023/09/01 10:33:47;;;;;;;0.73;0.60;;;;;;;25.72;88.65;96255.94;5035779;28;20209;-67
2023/09/01 10:36:14;;;;;;;1.75;0.50;;;;;;;25.91;83.88;96250.50;5035866;28;20382;-67
2023/09/01 10:38:42;;;;;;;0.60;0.40;;;;;;;26.46;84.60;96242.31;5035769;28;20701;-67
2023/09/01 10:41:08;;;;;;;0.98;0.60;;;;;;;26.36;83.28;96241.53;5034473;28;20206;-67
2023/09/01 10:43:53;;;;;;;1.27;0.70;;;;;;;27.02;80.96;96235.63;5035462;28;20193;-67
2023/09/01 10:46:27;;;;;;;0.75;0.40;;;;;;;26.82;79.31;96235.69;5036175;28;20216;-67
2023/09/01 10:48:56;;;;;;;1.77;0.60;;;;;;;26.36;78.32;96236.13;5034466;28;20205;-67
2023/09/01 10:51:26;;;;;;;1.23;0.60;;;;;;;26.33;81.18;96231.25;5035547;28;20941;-67
2023/09/01 10:53:56;;;;;;;3.70;0.90;;;;;;;26.41;81.96;96238.81;5035278;28;20205;-67
2023/09/01 10:56:24;;;;;;;0.55;0.40;;;;;;;25.52;80.55;96242.38;5035479;28;20507;-67
2023/09/01 10:58:52;;;;;;;0.47;0.47;;;;;;;25.68;85.74;96246.72;5035765;28;20205;-68
2023/09/01 11:01:35;;;;;;;0.88;0.60;;;;;;;26.02;84.59;96240.53;5035364;28;20470;-67
2023/09/01 11:04:30;;;;;;;0.63;0.50;;;;;;;25.78;80.79;96244.84;5034655;28;20328;-67
2023/09/01 11:07:10;;;;;;;0.52;0.38;;;;;;;25.29;83.29;96241.03;5034641;28;20221;-67
2023/09/01 11:09:57;;;;;;;0.32;0.30;;;;;;;25.79;82.10;96240.25;5035717;28;20194;-67
2023/09/01 11:12:35;;;;;;;0.45;0.43;;;;;;;25.87;81.12;96243.22;5035067;28;20302;-67
2023/09/01 11:15:04;;;;;;;0.30;0.30;;;;;;;25.50;80.88;96253.47;5035166;28;20208;-67
2023/09/01 11:17:43;;;;;;;2.60;0.93;;;;;;;26.17;82.04;96243.16;5034792;28;20459;-67
2023/09/01 11:20:11;;;;;;;0.52;0.43;;;;;;;26.64;80.12;96234.41;5035107;28;20955;-67
2023/09/01 11:22:40;;;;;;;0.43;0.43;;;;;;;26.92;77.83;96236.47;5035478;28;20201;-67
2023/09/01 11:25:14;;;;;;;5.22;0.40;;;;;;;26.49;75.33;96234.47;5035242;28;20588;-67
2023/09/01 11:27:47;;;;;;;0.57;0.45;;;;;;;26.60;77.53;96229.84;5034251;28;20233;-67
2023/09/01 11:30:16;;;;;;;1.38;0.90;;;;;;;26.76;78.51;96232.19;5035866;28;20205;-67